Time;durP1;ratioP1;P1;durP2;ratioP2;P2;SDS_P1;SDS_P2;PMS_P1;PMS_P2;Temp;Humidity;BMP_temperature;BMP_pressure;BME280_temperature;BME280_humidity;BME280_pressure;Samples;Min_cycle;Max_cycle;Signal;HPM_P1;HPM_P2
2022/10/24 00:01:39;;;;;;;;;;;;;;;15.78;87.53;99185.31;5053195;28;20041;-84
2022/10/24 00:04:06;;;;;;;4.63;1.58;;;;;;;15.82;87.31;99183.41;5052817;28;19916;-86
2022/10/24 00:06:31;;;;;;;5.00;1.67;;;;;;;15.75;87.68;99168.88;5052784;28;20028;-84
2022/10/24 00:08:57;;;;;;;3.58;1.40;;;;;;;15.77;87.68;99189.25;5050957;28;20021;-85
2022/10/24 00:11:24;;;;;;;;;;;;;;;15.86;87.03;99181.44;5052555;28;20085;-85
2022/10/24 00:13:51;;;;;;;5.57;1.40;;;;;;;15.87;86.86;99174.75;5050844;28;19912;-85
2022/10/24 00:16:18;;;;;;;4.63;1.10;;;;;;;15.91;86.30;99163.78;5052186;28;20486;-86
2022/10/24 00:18:44;;;;;;;3.95;1.38;;;;;;;15.89;86.24;99171.63;5050852;28;20104;-84
2022/10/24 00:21:10;;;;;;;5.10;1.25;;;;;;;15.82;86.75;99172.41;5050867;28;20147;-87
2022/10/24 00:23:35;;;;;;;;;;;;;;;15.77;86.74;99164.56;5052621;28;20115;-88
2022/10/24 00:26:02;;;;;;;4.18;1.38;;;;;;;15.83;85.84;99149.28;5050690;28;19909;-88
2022/10/24 00:28:29;;;;;;;3.13;1.50;;;;;;;15.90;85.06;99154.75;5050893;28;20025;-88
2022/10/24 00:30:56;;;;;;;5.63;1.70;;;;;;;15.92;84.65;99163.38;5052190;28;20029;-86
2022/10/24 00:33:21;;;;;;;6.50;1.80;;;;;;;15.92;84.31;99166.13;5052104;28;20386;-85
2022/10/24 00:35:46;;;;;;;6.05;1.45;;;;;;;15.95;84.20;99157.09;5050876;28;20031;-85
2022/10/24 00:38:11;;;;;;;;;;;;;;;15.97;84.04;99175.94;5052316;28;20628;-85
2022/10/24 00:40:37;;;;;;;5.07;1.40;;;;;;;15.99;84.21;99175.53;5052172;28;19913;-87
2022/10/24 00:43:02;;;;;;;;;;;;;;;15.99;84.07;99176.31;5053406;28;20024;-85
2022/10/24 00:45:41;;;;;;;8.20;2.40;;;;;;;16.01;83.63;99170.44;5038481;28;19988;-85
2022/10/24 00:48:31;;;;;;;5.30;1.30;;;;;;;15.98;83.98;99173.97;5056573;28;20317;-86
2022/10/24 00:51:02;;;;;;;5.15;1.70;;;;;;;16.00;83.87;99169.66;5038408;28;20025;-85
2022/10/24 00:53:30;;;;;;;8.80;1.80;;;;;;;16.00;83.98;99177.91;5056358;28;20024;-89
2022/10/24 00:56:01;;;;;;;4.32;1.30;;;;;;;16.03;83.80;99157.09;5038203;28;20041;-84
2022/10/24 00:58:29;;;;;;;3.15;1.33;;;;;;;16.04;83.59;99161.41;5056512;28;20104;-86
2022/10/24 01:00:56;;;;;;;5.45;1.70;;;;;;;16.05;83.21;99157.47;5056755;28;20025;-87
2022/10/24 01:03:21;;;;;;;6.63;1.80;;;;;;;16.10;83.07;99151.59;5056527;28;20021;-86
2022/10/24 01:05:49;;;;;;;;;;;;;;;16.08;82.82;99151.19;5056607;28;20036;-87
2022/10/24 01:08:29;;;;;;;4.55;1.65;;;;;;;16.10;82.17;99148.84;5056036;28;19954;-85
2022/10/24 01:11:17;;;;;;;3.05;1.05;;;;;;;16.12;81.69;99151.97;5037848;28;20021;-87
2022/10/24 01:13:52;;;;;;;6.13;2.03;;;;;;;16.15;80.94;99134.72;5056268;28;20056;-88
2022/10/24 01:16:25;;;;;;;8.18;1.95;;;;;;;16.11;81.12;99137.47;5038836;28;20107;-84
2022/10/24 01:19:00;;;;;;;6.35;1.80;;;;;;;16.14;80.63;99144.94;5055809;28;20056;-84
2022/10/24 01:21:53;;;;;;;4.90;1.55;;;;;;;16.18;80.55;99139.44;5038465;28;20500;-86
2022/10/24 01:24:53;;;;;;;3.28;1.30;;;;;;;16.09;80.78;99147.28;5035395;28;20508;-88
2022/10/24 01:27:46;;;;;;;2.42;0.90;;;;;;;16.21;80.40;99130.38;5055775;28;20072;-87
2022/10/24 01:30:13;;;;;;;3.60;1.40;;;;;;;16.27;79.86;99134.28;5055629;28;20048;-88
2022/10/24 01:32:58;;;;;;;4.97;1.77;;;;;;;16.21;79.98;99133.13;5038484;28;20032;-86
2022/10/24 01:36:02;;;;;;;3.95;1.00;;;;;;;16.16;80.11;99126.09;5037435;28;20482;-90
2022/10/24 01:38:33;;;;;;;5.10;1.58;;;;;;;16.17;79.68;99121.38;5055323;28;20059;-89
2022/10/24 01:41:06;;;;;;;3.10;1.23;;;;;;;16.19;79.63;99113.53;5055944;28;20087;-90
2022/10/24 01:43:44;;;;;;;4.95;1.20;;;;;;;16.22;79.66;99118.22;5055744;28;20040;-87
2022/10/24 01:46:14;;;;;;;4.47;1.60;;;;;;;16.18;79.68;99117.44;5055535;28;20025;-88
2022/10/24 01:48:44;;;;;;;3.58;1.15;;;;;;;16.24;79.74;99113.91;5055110;28;20029;-87
2022/10/24 01:51:14;;;;;;;6.43;1.67;;;;;;;16.33;79.18;99123.69;5056101;28;20039;-86
2022/10/24 01:53:42;;;;;;;3.72;1.58;;;;;;;16.30;79.30;99119.00;5056414;28;20500;-91
2022/10/24 01:56:08;;;;;;;4.95;1.55;;;;;;;16.41;78.26;99106.78;5054025;28;20490;-89
2022/10/24 01:58:33;;;;;;;;;;;;;;;16.52;77.70;99099.28;5038034;28;20031;-89
2022/10/24 02:01:04;;;;;;;5.30;1.30;;;;;;;16.40;77.72;99107.19;5056010;28;19917;-83
2022/10/24 02:03:35;;;;;;;5.57;1.45;;;;;;;16.41;77.80;99098.53;5055456;28;20112;-88
2022/10/24 02:06:12;;;;;;;6.55;1.63;;;;;;;16.42;77.35;99094.59;5055359;28;20044;-85
2022/10/24 02:08:44;;;;;;;5.88;1.45;;;;;;;16.45;77.43;99087.53;5055365;28;20051;-88
2022/10/24 02:11:10;;;;;;;4.25;1.17;;;;;;;16.39;77.26;99095.41;5054838;28;20025;-90
2022/10/24 02:13:47;;;;;;;;;;;;;;;16.40;77.03;99072.25;5055104;28;20481;-89
2022/10/24 02:16:17;;;;;;;4.15;1.15;;;;;;;16.40;77.04;99080.50;5054913;28;20383;-87
2022/10/24 02:18:43;;;;;;;4.55;1.20;;;;;;;16.44;76.63;99086.75;5054956;28;20029;-89
2022/10/24 02:21:08;;;;;;;2.28;0.80;;;;;;;16.40;76.89;99083.22;5054196;28;20028;-87
2022/10/24 02:23:38;;;;;;;;;;;;;;;16.34;77.14;99075.81;5055098;28;20037;-92
2022/10/24 02:26:12;;;;;;;3.65;1.08;;;;;;;16.34;76.90;99082.09;5054064;28;20046;-82
2022/10/24 02:28:46;;;;;;;5.35;1.38;;;;;;;16.44;76.70;99075.75;5053953;28;20032;-88
2022/10/24 02:31:17;;;;;;;4.28;1.27;;;;;;;16.30;77.13;99075.84;5036862;28;20033;-88
2022/10/24 02:33:45;;;;;;;3.92;1.15;;;;;;;16.29;77.02;99067.97;5020246;28;20037;-85
2022/10/24 02:36:17;;;;;;;3.40;1.27;;;;;;;16.27;77.09;99071.09;5054256;28;20048;-87
2022/10/24 02:38:46;;;;;;;4.18;1.00;;;;;;;16.30;76.87;99072.31;5040758;28;20071;-87
2022/10/24 02:41:17;;;;;;;4.55;1.00;;;;;;;16.21;76.80;99059.75;5054208;28;20021;-88
2022/10/24 02:43:44;;;;;;;3.10;1.50;;;;;;;16.17;77.10;99078.22;5052867;28;20029;-88
2022/10/24 02:46:12;;;;;;;3.50;1.65;;;;;;;16.13;76.72;99066.47;5053865;28;20025;-90
2022/10/24 02:48:43;;;;;;;6.60;1.77;;;;;;;16.16;76.89;99070.38;5054089;28;20568;-86
2022/10/24 02:51:08;;;;;;;4.00;1.02;;;;;;;16.16;76.69;99064.88;5054326;28;20032;-88
2022/10/24 02:53:35;;;;;;;;;;;;;;;16.21;76.05;99058.97;5054416;28;20386;-85
2022/10/24 02:56:00;;;;;;;5.05;0.90;;;;;;;16.19;76.61;99080.56;5053587;28;19915;-87
2022/10/24 02:58:25;;;;;;;;;;;;;;;16.18;76.51;99074.28;5054378;28;20033;-88
2022/10/24 03:00:51;;;;;;;3.20;1.27;;;;;;;16.14;76.08;99062.53;5053633;28;20030;-88
2022/10/24 03:03:16;;;;;;;;;;;;;;;16.17;75.79;99058.22;5054096;28;20278;-86
2022/10/24 03:05:41;;;;;;;5.45;0.90;;;;;;;16.16;76.13;99073.13;5053506;28;19918;-89
2022/10/24 03:08:07;;;;;;;;;;;;;;;16.10;76.09;99070.00;5053925;28;20032;-89
2022/10/24 03:10:33;;;;;;;3.95;1.42;;;;;;;16.11;75.71;99068.03;5052348;28;19920;-87
2022/10/24 03:12:59;;;;;;;;;;;;;;;16.12;75.99;99058.59;5054144;28;20025;-90
2022/10/24 03:15:25;;;;;;;5.65;1.20;;;;;;;16.32;74.86;99069.94;5053362;28;19970;-86
2022/10/24 03:17:50;;;;;;;;;;;;;;;16.19;75.46;99067.63;5054038;28;20028;-89
2022/10/24 03:20:16;;;;;;;3.50;1.00;;;;;;;16.24;75.20;99077.41;5053445;28;19924;-86
2022/10/24 03:22:41;;;;;;;;;;;;;;;16.17;75.60;99071.94;5053772;28;20272;-89
2022/10/24 03:25:07;;;;;;;5.67;1.40;;;;;;;16.18;75.37;99066.06;5053740;28;19909;-84
2022/10/24 03:27:32;;;;;;;;;;;;;;;16.15;75.66;99074.31;5053248;28;20385;-87
2022/10/24 03:29:58;;;;;;;6.07;0.88;;;;;;;16.13;75.77;99069.22;5053190;28;19998;-88
2022/10/24 03:32:24;;;;;;;;;;;;;;;16.05;76.50;99083.34;5053485;28;20021;-89
2022/10/24 03:34:49;;;;;;;3.10;1.10;;;;;;;16.07;76.44;99083.72;5053623;28;19916;-85
2022/10/24 03:37:14;;;;;;;5.20;1.52;;;;;;;16.07;76.86;99081.00;5053085;28;20279;-87
2022/10/24 03:39:40;;;;;;;;;;;;;;;16.02;76.98;99081.41;5053244;28;20049;-85
2022/10/24 03:42:05;;;;;;;2.20;0.90;;;;;;;16.03;77.39;99077.47;5053349;28;20353;-84
2022/10/24 03:44:30;;;;;;;2.65;1.02;;;;;;;16.09;76.82;99070.38;5053028;28;20295;-87
2022/10/24 03:46:55;;;;;;;;;;;;;;;16.02;77.36;99086.91;5036043;28;20039;-89
2022/10/24 03:49:21;;;;;;;3.10;1.10;;;;;;;16.01;77.37;99071.59;5054094;28;19909;-90
2022/10/24 03:51:46;;;;;;;;;;;;;;;15.93;77.77;99074.34;5053779;28;20732;-92
2022/10/24 03:54:14;;;;;;;3.80;1.20;;;;;;;15.93;77.60;99079.06;5053301;28;19909;-90
2022/10/24 03:56:40;;;;;;;5.65;1.60;;;;;;;15.93;77.50;99085.31;5035207;28;20041;-89
2022/10/24 03:59:05;;;;;;;4.75;1.15;;;;;;;15.90;77.62;99086.13;5053751;28;20107;-89
2022/10/24 04:01:31;;;;;;;2.85;1.30;;;;;;;15.87;77.72;99080.66;5036111;28;20287;-93
2022/10/24 04:03:56;;;;;;;;;;;;;;;15.86;77.80;99084.56;5037303;28;20435;-90
2022/10/24 04:06:21;;;;;;;4.43;1.07;;;;;;;15.81;77.81;99079.50;5055099;28;19987;-92
2022/10/24 04:08:46;;;;;;;;;;;;;;;15.85;77.57;99083.78;5054686;28;20025;-90
2022/10/24 04:11:12;;;;;;;2.47;1.00;;;;;;;15.84;77.88;99079.47;5035436;28;19935;-88
2022/10/24 04:13:37;;;;;;;;;;;;;;;15.81;77.55;99083.00;5035530;28;20055;-91
2022/10/24 04:16:02;;;;;;;5.30;1.65;;;;;;;15.72;78.15;99084.59;5053522;28;19915;-89
2022/10/24 04:18:28;;;;;;;;;;;;;;;15.76;77.53;99075.16;5053771;28;20033;-90
2022/10/24 04:20:53;;;;;;;6.20;1.17;;;;;;;15.72;78.04;99079.09;5053429;28;20366;-89
2022/10/24 04:23:18;;;;;;;;;;;;;;;15.66;78.25;99080.69;5035297;28;20115;-89
2022/10/24 04:25:44;;;;;;;4.20;1.10;;;;;;;15.64;78.31;99079.13;5055024;28;19912;-89
2022/10/24 04:28:10;;;;;;;3.70;1.10;;;;;;;15.62;78.33;99086.97;5035498;28;20259;-90
2022/10/24 04:30:36;;;;;;;4.25;1.30;;;;;;;15.69;78.42;99086.16;5053618;28;20485;-88
2022/10/24 04:33:01;;;;;;;;;;;;;;;15.66;78.03;99066.97;5055447;28;20458;-86
2022/10/24 04:35:26;;;;;;;4.43;2.23;;;;;;;15.62;78.16;99078.72;5052700;28;19999;-90
2022/10/24 04:37:52;;;;;;;9.57;1.67;;;;;;;15.62;77.77;99086.97;5052768;28;20298;-84
2022/10/24 04:40:17;;;;;;;;;;;;;;;15.69;77.43;99068.91;5054860;28;20139;-90
2022/10/24 04:42:42;;;;;;;6.53;1.40;;;;;;;15.60;77.79;99080.28;5054051;28;19909;-86
2022/10/24 04:45:09;;;;;;;5.07;1.70;;;;;;;15.64;77.57;99083.81;5053274;28;20268;-88
2022/10/24 04:47:35;;;;;;;3.17;1.10;;;;;;;15.62;77.52;99072.47;5053909;28;20108;-88
2022/10/24 04:50:02;;;;;;;5.00;1.20;;;;;;;15.58;77.42;99085.34;5054181;28;20033;-89
2022/10/24 04:52:28;;;;;;;2.92;0.80;;;;;;;15.57;77.27;99083.78;5054003;28;20102;-84
2022/10/24 04:54:53;;;;;;;4.85;1.60;;;;;;;15.66;76.85;99089.69;5052777;28;20072;-86
2022/10/24 04:57:18;;;;;;;;;;;;;;;15.61;76.98;99079.09;5053757;28;20174;-86
2022/10/24 04:59:44;;;;;;;3.33;0.87;;;;;;;15.61;77.07;99095.56;5052174;28;19930;-85
2022/10/24 05:02:09;;;;;;;;;;;;;;;15.64;76.30;99094.78;5034629;28;20370;-89
2022/10/24 05:04:34;;;;;;;3.80;1.30;;;;;;;15.59;76.59;99086.94;5053243;28;19917;-88
2022/10/24 05:07:00;;;;;;;6.03;1.10;;;;;;;15.58;76.52;99101.81;5053015;28;20275;-87
2022/10/24 05:09:25;;;;;;;;;;;;;;;15.52;76.75;99095.94;5053198;28;20120;-85
2022/10/24 05:11:54;;;;;;;3.22;0.90;;;;;;;15.49;77.00;99110.44;5052904;28;19909;-87
2022/10/24 05:14:20;;;;;;;6.43;1.30;;;;;;;15.48;76.93;99097.91;5052953;28;20094;-89
2022/10/24 05:16:47;;;;;;;6.75;1.48;;;;;;;15.45;77.12;99098.69;5052470;28;20703;-86
2022/10/24 05:19:14;;;;;;;4.68;0.70;;;;;;;15.50;76.81;99092.81;5052242;28;20029;-87
2022/10/24 05:21:39;;;;;;;2.83;1.20;;;;;;;15.46;77.07;99102.22;5035381;28;20393;-89
2022/10/24 05:24:05;;;;;;;2.53;0.90;;;;;;;15.43;77.43;99100.22;5053985;28;20044;-90
2022/10/24 05:26:30;;;;;;;;;;;;;;;15.38;77.59;99086.91;5053848;28;20551;-92
2022/10/24 05:28:56;;;;;;;2.20;1.00;;;;;;;15.40;77.72;99101.03;5052390;28;19920;-86
2022/10/24 05:31:21;;;;;;;5.35;0.93;;;;;;;15.35;77.87;99103.00;5038288;28;20280;-89
2022/10/24 05:33:46;;;;;;;;;;;;;;;15.34;77.70;99097.91;5056815;28;20025;-92
2022/10/24 05:36:12;;;;;;;5.68;0.90;;;;;;;15.30;77.85;99100.63;5038609;28;20011;-85
2022/10/24 05:38:37;;;;;;;;;;;;;;;15.33;77.46;99097.13;5056441;28;20383;-87
2022/10/24 05:41:02;;;;;;;2.75;1.00;;;;;;;15.31;77.36;99099.47;5056338;28;19955;-85
2022/10/24 05:43:28;;;;;;;;;;;;;;;15.27;77.49;99103.34;5056861;28;20383;-90
2022/10/24 05:45:53;;;;;;;2.70;0.80;;;;;;;15.26;77.57;99094.34;5055527;28;20380;-86
2022/10/24 05:48:18;;;;;;;;;;;;;;;15.22;77.98;99090.81;5058718;28;20048;-89
2022/10/24 05:50:44;;;;;;;6.93;0.95;;;;;;;15.21;78.05;99089.25;5054742;28;19934;-87
2022/10/24 05:53:09;;;;;;;;;;;;;;;15.23;77.63;99097.88;5055467;28;20492;-89
2022/10/24 05:55:35;;;;;;;3.42;1.25;;;;;;;15.22;77.78;99104.53;5037104;28;19939;-87
2022/10/24 05:58:01;;;;;;;;;;;;;;;15.21;77.70;99121.38;5037739;28;20031;-89
2022/10/24 06:00:26;;;;;;;3.28;0.80;;;;;;;15.25;77.66;99113.94;5055627;28;20011;-88
2022/10/24 06:02:52;;;;;;;;;;;;;;;15.17;77.87;99115.91;5056364;28;20029;-92
2022/10/24 06:05:18;;;;;;;3.03;0.88;;;;;;;15.21;77.59;99110.41;5037779;28;19909;-86
2022/10/24 06:07:43;;;;;;;;;;;;;;;15.15;78.04;99104.53;5056684;28;20024;-89
2022/10/24 06:10:10;;;;;;;2.60;1.00;;;;;;;15.13;77.89;99104.16;5057022;28;20285;-87
2022/10/24 06:12:36;;;;;;;2.63;0.90;;;;;;;15.12;78.10;99113.53;5022431;28;20036;-89
2022/10/24 06:15:04;;;;;;;1.98;0.90;;;;;;;15.17;77.59;99126.88;5056738;28;20025;-85
2022/10/24 06:17:29;;;;;;;3.40;0.95;;;;;;;15.15;77.55;99115.50;5056548;28;20095;-86
2022/10/24 06:19:55;;;;;;;3.60;1.10;;;;;;;15.21;77.14;99121.38;5056672;28;20029;-90
2022/10/24 06:22:23;;;;;;;;;;;;;;;15.16;77.09;99125.28;5056165;28;20029;-90
2022/10/24 06:24:48;;;;;;;4.85;1.20;;;;;;;15.15;77.18;99122.94;5056843;28;19916;-87
2022/10/24 06:27:14;;;;;;;3.72;1.15;;;;;;;15.10;77.48;99139.75;5056452;28;20126;-87
2022/10/24 06:29:40;;;;;;;1.70;0.70;;;;;;;15.13;77.18;99128.81;5038172;28;20401;-87
2022/10/24 06:32:06;;;;;;;7.45;1.77;;;;;;;15.15;76.64;99134.69;5056058;28;20020;-87
2022/10/24 06:34:32;;;;;;;4.75;1.55;;;;;;;15.11;77.25;99125.66;5056618;28;20025;-88
2022/10/24 06:36:57;;;;;;;1.75;0.60;;;;;;;15.15;76.74;99129.22;5055583;28;20504;-85
2022/10/24 06:39:22;;;;;;;;;;;;;;;15.13;76.94;99137.03;5050613;28;20090;-86
2022/10/24 06:41:48;;;;;;;1.30;0.60;;;;;;;15.19;76.57;99134.69;5053835;28;19934;-87
2022/10/24 06:44:13;;;;;;;2.10;0.65;;;;;;;15.18;76.36;99139.41;5055772;28;20364;-86
2022/10/24 06:46:39;;;;;;;;;;;;;;;15.17;76.53;99151.53;5056026;28;20076;-88
2022/10/24 06:49:04;;;;;;;2.40;0.80;;;;;;;15.18;76.43;99144.88;5055376;28;20353;-84
2022/10/24 06:51:31;;;;;;;;;;;;;;;15.18;76.59;99144.88;5056749;28;20016;-88
2022/10/24 06:53:57;;;;;;;1.40;0.60;;;;;;;15.18;76.48;99147.63;5056432;28;20336;-86
2022/10/24 06:56:23;;;;;;;3.60;1.02;;;;;;;15.16;76.98;99144.50;5056369;28;20601;-87
2022/10/24 06:58:48;;;;;;;1.67;0.75;;;;;;;15.16;77.03;99158.19;5056862;28;20101;-87
2022/10/24 07:01:22;;;;;;;3.65;0.90;;;;;;;15.18;76.63;99155.06;5055376;28;20032;-84
2022/10/24 07:03:48;;;;;;;8.55;1.00;;;;;;;15.25;76.36;99160.56;5055847;28;20095;-87
2022/10/24 07:06:19;;;;;;;;;;;;;;;15.25;76.67;99163.28;5055870;28;20051;-88
2022/10/24 07:08:45;;;;;;;1.63;0.70;;;;;;;15.20;77.01;99167.22;5056655;28;20025;-87
2022/10/24 07:11:10;;;;;;;1.88;0.63;;;;;;;15.23;76.61;99179.34;5054381;28;20485;-87
2022/10/24 07:13:36;;;;;;;;;;;;;;;15.28;76.26;99170.75;5054457;28;20044;-90
2022/10/24 07:16:02;;;;;;;4.60;0.63;;;;;;;15.36;75.72;99166.84;5056274;28;19919;-87
2022/10/24 07:18:28;;;;;;;4.97;1.00;;;;;;;15.40;75.82;99172.34;5055681;28;20275;-86
2022/10/24 07:20:53;;;;;;;2.13;0.73;;;;;;;15.38;76.17;99169.19;5055351;28;20029;-86
2022/10/24 07:23:18;;;;;;;;;;;;;;;15.45;75.40;99175.50;5038486;28;20048;-92
2022/10/24 07:25:51;;;;;;;3.47;1.05;;;;;;;15.52;74.93;99174.72;5056507;28;19955;-91
2022/10/24 07:28:17;;;;;;;5.20;1.48;;;;;;;15.53;75.41;99192.75;5056716;28;20028;-90
2022/10/24 07:30:43;;;;;;;2.88;0.88;;;;;;;15.56;75.27;99186.47;5055949;28;20096;-90
2022/10/24 07:33:09;;;;;;;5.50;1.00;;;;;;;15.54;74.54;99195.09;5057156;28;20493;-92
2022/10/24 07:35:34;;;;;;;2.90;1.10;;;;;;;15.55;74.89;99188.44;5056636;28;20063;-90
2022/10/24 07:37:59;;;;;;;;;;;;;;;15.58;74.62;99189.59;5056434;28;20037;-93
2022/10/24 07:40:25;;;;;;;2.63;1.00;;;;;;;15.61;74.28;99192.38;5038836;28;20275;-89
2022/10/24 07:42:50;;;;;;;3.73;0.80;;;;;;;15.60;74.44;99198.25;5056268;28;20531;-88
2022/10/24 07:45:15;;;;;;;2.58;0.93;;;;;;;15.62;73.64;99190.44;5056326;28;20283;-86
2022/10/24 07:47:41;;;;;;;;;;;;;;;15.66;73.98;99196.72;5055178;28;20577;-89
2022/10/24 07:50:07;;;;;;;3.17;0.75;;;;;;;15.66;73.76;99202.19;5057942;28;19916;-91
2022/10/24 07:52:32;;;;;;;;;;;;;;;15.68;73.46;99199.84;5037605;28;20470;-90
2022/10/24 07:54:57;;;;;;;4.38;0.75;;;;;;;15.67;73.39;99203.78;5056345;28;19916;-89
2022/10/24 07:57:23;;;;;;;;;;;;;;;15.64;73.64;99199.84;5037475;28;20076;-92
2022/10/24 07:59:49;;;;;;;3.85;0.80;;;;;;;15.62;73.83;99198.69;5056761;28;19912;-89
2022/10/24 08:02:15;;;;;;;;;;;;;;;15.62;74.12;99206.91;5038824;28;20043;-88
2022/10/24 08:04:40;;;;;;;3.50;0.88;;;;;;;15.63;74.11;99208.47;5056470;28;20284;-89
2022/10/24 08:07:11;;;;;;;;;;;;;;;15.66;74.02;99202.19;5057561;28;20048;-90
2022/10/24 08:09:39;;;;;;;4.93;1.15;;;;;;;15.72;73.57;99195.13;5058250;28;19959;-85
2022/10/24 08:12:04;;;;;;;3.30;0.80;;;;;;;15.71;73.91;99204.56;5057674;28;20041;-89
2022/10/24 08:14:32;;;;;;;4.30;0.77;;;;;;;15.74;73.82;99189.25;5038430;28;20021;-82
2022/10/24 08:16:58;;;;;;;6.95;0.90;;;;;;;15.75;73.91;99199.84;5056204;28;20092;-91
2022/10/24 08:19:23;;;;;;;3.40;0.80;;;;;;;15.79;73.56;99205.31;5039156;28;20547;-90
2022/10/24 08:21:49;;;;;;;;;;;;;;;15.76;73.58;99206.91;5040189;28;20443;-92
2022/10/24 08:24:15;;;;;;;2.20;1.08;;;;;;;15.78;73.45;99199.06;5037737;28;20003;-90
2022/10/24 08:26:42;;;;;;;2.50;0.75;;;;;;;15.76;73.38;99206.13;5037965;28;20116;-87
2022/10/24 08:29:10;;;;;;;2.70;0.90;;;;;;;15.78;73.68;99199.06;5055782;28;20047;-89
2022/10/24 08:31:36;;;;;;;4.80;1.30;;;;;;;15.79;73.13;99195.16;5054104;28;20108;-88
2022/10/24 08:34:04;;;;;;;1.42;0.60;;;;;;;15.80;72.62;99196.72;5054060;28;20025;-89
2022/10/24 08:36:32;;;;;;;2.80;0.88;;;;;;;15.83;72.85;99195.94;5055540;28;20025;-89
2022/10/24 08:38:58;;;;;;;4.10;0.90;;;;;;;15.92;72.00;99204.56;5053769;28;20049;-87
2022/10/24 08:41:50;;;;;;;1.45;0.60;;;;;;;15.92;72.10;99196.31;5053857;28;20021;-89
2022/10/24 08:44:37;;;;;;;4.55;0.80;;;;;;;15.92;72.14;99198.28;5048571;28;20131;-91
2022/10/24 08:47:26;;;;;;;6.07;0.90;;;;;;;15.92;72.17;99204.56;5024485;28;20025;-90
2022/10/24 08:50:20;;;;;;;3.72;0.80;;;;;;;15.92;71.80;99195.53;5041571;28;20025;-88
2022/10/24 08:53:03;;;;;;;4.63;0.77;;;;;;;15.92;72.18;99210.03;5056442;28;20013;-86
2022/10/24 08:55:38;;;;;;;3.42;1.05;;;;;;;15.93;71.92;99219.06;5040034;28;20037;-90
2022/10/24 08:58:05;;;;;;;3.75;0.98;;;;;;;15.94;71.80;99201.41;5037431;28;20021;-87
2022/10/24 09:00:37;;;;;;;2.97;0.60;;;;;;;15.95;71.72;99208.47;5054768;28;20488;-87
2022/10/24 09:03:12;;;;;;;3.95;0.88;;;;;;;15.95;71.72;99214.75;5056646;28;20025;-88
2022/10/24 09:05:47;;;;;;;2.33;0.70;;;;;;;15.92;71.73;99207.28;5040943;28;20032;-87
2022/10/24 09:08:24;;;;;;;4.00;0.80;;;;;;;15.92;72.08;99218.28;5057767;28;20025;-86
2022/10/24 09:10:58;;;;;;;1.42;0.60;;;;;;;15.95;71.64;99219.44;5060418;28;20036;-88
2022/10/24 09:13:30;;;;;;;2.90;0.98;;;;;;;15.97;71.62;99227.31;5041489;28;20453;-88
2022/10/24 09:15:55;;;;;;;2.33;0.73;;;;;;;15.95;71.36;99220.22;5040783;28;20164;-89
2022/10/24 09:18:30;;;;;;;2.50;0.60;;;;;;;15.99;71.12;99224.97;5058988;28;20021;-91
2022/10/24 09:20:57;;;;;;;5.47;0.93;;;;;;;16.02;71.30;99233.19;5041040;28;20161;-89
2022/10/24 09:23:24;;;;;;;5.50;1.50;;;;;;;16.03;71.40;99221.03;5060152;28;20021;-91
2022/10/24 09:25:55;;;;;;;3.88;1.00;;;;;;;16.07;71.21;99221.81;5042211;28;20450;-90
2022/10/24 09:28:21;;;;;;;3.20;0.82;;;;;;;16.14;71.06;99232.81;5061390;28;20076;-86
2022/10/24 09:30:47;;;;;;;;;;;;;;;16.22;71.08;99244.56;5060617;28;20131;-89
2022/10/24 09:33:29;;;;;;;2.88;0.52;;;;;;;16.16;70.82;99237.91;5042679;28;19975;-89
2022/10/24 09:35:58;;;;;;;1.60;0.60;;;;;;;16.15;71.10;99234.38;5039391;28;20029;-85
2022/10/24 09:38:35;;;;;;;3.80;0.70;;;;;;;16.15;71.08;99245.34;5043531;28;20048;-88
2022/10/24 09:41:05;;;;;;;2.25;0.50;;;;;;;16.11;71.11;99247.31;5058771;28;20041;-87
2022/10/24 09:43:42;;;;;;;3.97;0.68;;;;;;;16.13;71.13;99244.97;5060230;28;20021;-85
2022/10/24 09:46:11;;;;;;;3.90;0.80;;;;;;;16.13;71.24;99250.47;5058490;28;20038;-87
2022/10/24 09:48:55;;;;;;;4.70;1.10;;;;;;;16.22;70.53;99261.03;5058492;28;20102;-90
2022/10/24 09:51:33;;;;;;;6.47;0.65;;;;;;;16.32;70.79;99267.72;5058914;28;20102;-88
2022/10/24 09:54:17;;;;;;;2.33;0.80;;;;;;;16.39;69.71;99276.72;5057164;28;20050;-90
2022/10/24 09:56:43;;;;;;;3.83;0.80;;;;;;;16.47;70.01;99277.53;5059658;28;20031;-86
2022/10/24 09:59:35;;;;;;;2.38;0.60;;;;;;;16.55;69.66;99268.84;5056152;28;20453;-87
2022/10/24 10:02:09;;;;;;;3.28;0.77;;;;;;;16.54;69.45;99264.53;5055101;28;20021;-87
2022/10/24 10:04:39;;;;;;;5.43;1.05;;;;;;;16.52;69.67;99269.66;5055617;28;20029;-86
2022/10/24 10:07:11;;;;;;;4.00;1.55;;;;;;;16.52;70.17;99280.66;5056943;28;20497;-91
2022/10/24 10:09:41;;;;;;;5.07;0.77;;;;;;;16.48;70.06;99281.84;5056403;28;20028;-86
2022/10/24 10:12:30;;;;;;;2.13;0.98;;;;;;;16.45;70.82;99286.13;5056314;28;20039;-91
2022/10/24 10:14:56;;;;;;;4.00;0.85;;;;;;;16.48;70.63;99288.13;5054785;28;20119;-88
2022/10/24 10:17:23;;;;;;;;;;;;;;;16.51;70.75;99289.28;5053855;28;20056;-85
2022/10/24 10:19:51;;;;;;;2.20;0.50;;;;;;;16.44;70.30;99290.06;5056261;28;19908;-88
2022/10/24 10:22:21;;;;;;;12.35;1.02;;;;;;;16.43;70.72;99294.00;5056471;28;20128;-88
2022/10/24 10:24:50;;;;;;;3.60;1.25;;;;;;;16.41;71.07;99299.09;5054629;28;20486;-91
2022/10/24 10:27:48;;;;;;;2.80;0.63;;;;;;;16.44;70.42;99290.06;5055526;28;20025;-87
2022/10/24 10:30:19;;;;;;;5.85;0.80;;;;;;;16.47;70.05;99283.03;5056735;28;20036;-85
2022/10/24 10:32:48;;;;;;;1.80;0.57;;;;;;;16.45;70.24;99312.81;5056459;28;20013;-89
2022/10/24 10:35:46;;;;;;;3.00;0.80;;;;;;;16.37;70.54;99311.28;5054305;28;20051;-89
2022/10/24 10:38:36;;;;;;;1.90;0.60;;;;;;;16.40;70.27;99311.25;5052584;28;20620;-86
2022/10/24 10:41:08;;;;;;;3.95;0.65;;;;;;;16.42;70.11;99300.66;5058684;28;20042;-90
2022/10/24 10:43:49;;;;;;;3.80;1.20;;;;;;;16.41;70.59;99314.78;5058177;28;20021;-86
2022/10/24 10:46:28;;;;;;;4.85;0.93;;;;;;;16.41;70.77;99323.81;5039873;28;20021;-92
2022/10/24 10:49:15;;;;;;;4.63;0.90;;;;;;;16.39;70.98;99330.88;5056804;28;20025;-90
2022/10/24 10:51:50;;;;;;;2.35;0.93;;;;;;;16.40;71.21;99332.47;5056395;28;20051;-88
2022/10/24 10:54:34;;;;;;;3.72;0.75;;;;;;;16.33;71.50;99321.47;5039619;28;20059;-90
2022/10/24 10:57:08;;;;;;;2.13;0.63;;;;;;;16.35;71.13;99330.91;5038473;28;20035;-88
2022/10/24 10:59:44;;;;;;;3.38;0.63;;;;;;;16.34;71.13;99321.09;5062546;28;20063;-87
2022/10/24 11:02:44;;;;;;;;;;;;;;;16.41;70.66;99334.03;5064724;28;20021;-91
2022/10/24 11:05:31;;;;;;;4.22;0.70;;;;;;;16.44;71.27;99339.50;4999654;28;19917;-88
2022/10/24 11:08:15;;;;;;;2.65;1.23;;;;;;;16.43;71.29;99348.16;5000663;28;20058;-89
2022/10/24 11:10:50;;;;;;;4.00;0.85;;;;;;;16.45;71.53;99341.09;5000542;28;20117;-91
2022/10/24 11:13:22;;;;;;;5.50;1.80;;;;;;;16.48;71.86;99347.78;4985915;28;20057;-88
2022/10/24 11:15:51;;;;;;;4.50;0.65;;;;;;;16.53;71.52;99331.69;5007342;28;20031;-87
2022/10/24 11:18:25;;;;;;;7.20;1.20;;;;;;;16.53;72.00;99350.13;5004266;28;20038;-89
2022/10/24 11:21:07;;;;;;;2.65;0.85;;;;;;;16.53;71.78;99337.16;5004348;28;20045;-89
2022/10/24 11:23:54;;;;;;;2.75;0.70;;;;;;;16.55;71.70;99347.78;4985529;28;20067;-90
2022/10/24 11:26:43;;;;;;;4.35;0.80;;;;;;;16.62;71.66;99338.72;4985539;28;20038;-89
2022/10/24 11:29:23;;;;;;;3.60;1.25;;;;;;;16.63;71.30;99345.78;4998674;28;20038;-89
2022/10/24 11:31:55;;;;;;;3.47;0.60;;;;;;;16.57;71.86;99350.91;4998125;28;20057;-90
2022/10/24 11:34:46;;;;;;;4.90;1.13;;;;;;;16.53;71.78;99353.66;4998960;28;20027;-90
2022/10/24 11:37:17;;;;;;;3.47;0.85;;;;;;;16.58;72.08;99352.47;5058920;28;20037;-88
2022/10/24 11:40:09;;;;;;;6.38;1.00;;;;;;;16.63;71.19;99352.09;5054954;28;20132;-90
2022/10/24 11:43:22;;;;;;;2.40;0.68;;;;;;;16.64;70.98;99352.88;5063876;28;20055;-88
2022/10/24 11:45:57;;;;;;;2.75;0.57;;;;;;;16.63;71.15;99357.59;5039198;28;20033;-89
2022/10/24 11:48:32;;;;;;;2.95;0.90;;;;;;;16.59;70.79;99362.28;5062418;28;20036;-86
2022/10/24 11:51:06;;;;;;;5.25;1.17;;;;;;;16.57;70.13;99372.09;5064071;28;20013;-90
2022/10/24 11:53:34;;;;;;;4.80;0.68;;;;;;;16.50;70.64;99359.94;5063562;28;20063;-90
2022/10/24 11:56:18;;;;;;;5.00;1.00;;;;;;;16.44;71.23;99367.00;5061594;28;20035;-87
2022/10/24 11:59:02;;;;;;;5.43;1.05;;;;;;;16.40;71.51;99363.47;5063633;28;20051;-89
2022/10/24 12:01:54;;;;;;;1.08;0.40;;;;;;;16.40;71.35;99366.22;5055569;28;20037;-91